sensor_id;sensor_type;location;lat;lon;timestamp;pressure;altitude;pressure_sealevel;temperature;humidity
60055;BME280;45930;53.514;55.904;2023-04-07T00:00:35;49130.00;;;-149.77;46.64
60055;BME280;45930;53.514;55.904;2023-04-07T00:01:35;49104.25;;;-149.77;46.89
60055;BME280;45930;53.514;55.904;2023-04-07T00:02:36;49120.09;;;-149.77;46.99
60055;BME280;45930;53.514;55.904;2023-04-07T00:03:37;49092.34;;;-149.77;46.87
60055;BME280;45930;53.514;55.904;2023-04-07T00:04:40;49114.16;;;-149.77;46.93
60055;BME280;45930;53.514;55.904;2023-04-07T00:05:41;49122.06;;;-149.77;47.24
60055;BME280;45930;53.514;55.904;2023-04-07T00:06:41;49104.25;;;-149.77;47.26
60055;BME280;45930;53.514;55.904;2023-04-07T00:07:43;49110.19;;;-149.77;47.28
60055;BME280;45930;53.514;55.904;2023-04-07T00:08:43;49108.19;;;-149.77;47.31
60055;BME280;45930;53.514;55.904;2023-04-07T00:09:45;49110.19;;;-149.77;47.47
60055;BME280;45930;53.514;55.904;2023-04-07T00:10:45;49086.41;;;-149.77;47.78
60055;BME280;45930;53.514;55.904;2023-04-07T00:11:46;49092.34;;;-149.77;47.71
60055;BME280;45930;53.514;55.904;2023-04-07T00:12:48;49070.56;;;-149.77;47.93
60055;BME280;45930;53.514;55.904;2023-04-07T00:13:48;49092.34;;;-149.77;48.25
60055;BME280;45930;53.514;55.904;2023-04-07T00:14:49;49086.41;;;-149.77;48.26
60055;BME280;45930;53.514;55.904;2023-04-07T00:15:50;49130.00;;;-149.77;48.39
60055;BME280;45930;53.514;55.904;2023-04-07T00:16:51;49098.28;;;-149.77;48.67
60055;BME280;45930;53.514;55.904;2023-04-07T00:17:52;49086.41;;;-149.77;48.69
60055;BME280;45930;53.514;55.904;2023-04-07T00:18:53;49131.97;;;-149.77;48.94
60055;BME280;45930;53.514;55.904;2023-04-07T00:19:54;49074.53;;;-149.77;48.92
60055;BME280;45930;53.514;55.904;2023-04-07T00:20:54;49108.19;;;-149.77;48.97
60055;BME280;45930;53.514;55.904;2023-04-07T00:21:55;49124.03;;;-149.77;49.09
60055;BME280;45930;53.514;55.904;2023-04-07T00:22:56;49086.41;;;-149.77;49.33
60055;BME280;45930;53.514;55.904;2023-04-07T00:23:57;49084.44;;;-149.77;49.28
60055;BME280;45930;53.514;55.904;2023-04-07T00:24:58;49110.19;;;-149.77;49.49
60055;BME280;45930;53.514;55.904;2023-04-07T00:25:59;49092.34;;;-149.77;49.56
60055;BME280;45930;53.514;55.904;2023-04-07T00:27:00;49090.38;;;-149.77;49.47
60055;BME280;45930;53.514;55.904;2023-04-07T00:28:01;49126.03;;;-149.77;49.32
60055;BME280;45930;53.514;55.904;2023-04-07T00:29:02;49094.34;;;-149.77;49.56
60055;BME280;45930;53.514;55.904;2023-04-07T00:30:04;49080.47;;;-149.77;49.48
60055;BME280;45930;53.514;55.904;2023-04-07T00:31:05;49104.25;;;-149.77;49.19
60055;BME280;45930;53.514;55.904;2023-04-07T00:32:05;49108.19;;;-149.77;49.21
60055;BME280;45930;53.514;55.904;2023-04-07T00:33:06;49088.41;;;-149.77;49.38
60055;BME280;45930;53.514;55.904;2023-04-07T00:34:07;49076.50;;;-149.77;49.39
60055;BME280;45930;53.514;55.904;2023-04-07T00:35:08;49116.13;;;-149.77;49.28
60055;BME280;45930;53.514;55.904;2023-04-07T00:36:09;49084.44;;;-149.77;49.01
60055;BME280;45930;53.514;55.904;2023-04-07T00:37:10;49104.25;;;-149.77;48.97
60055;BME280;45930;53.514;55.904;2023-04-07T00:38:11;49092.34;;;-149.77;48.96
60055;BME280;45930;53.514;55.904;2023-04-07T00:39:12;49126.03;;;-149.77;48.94
60055;BME280;45930;53.514;55.904;2023-04-07T00:40:13;49104.25;;;-149.77;48.81
60055;BME280;45930;53.514;55.904;2023-04-07T00:41:14;49080.47;;;-149.77;49.03
60055;BME280;45930;53.514;55.904;2023-04-07T00:42:15;49090.38;;;-149.77;49.03
60055;BME280;45930;53.514;55.904;2023-04-07T00:43:16;49092.34;;;-149.77;49.16
60055;BME280;45930;53.514;55.904;2023-04-07T00:44:16;49100.28;;;-149.77;48.96
60055;BME280;45930;53.514;55.904;2023-04-07T00:45:17;49088.41;;;-149.77;49.22
60055;BME280;45930;53.514;55.904;2023-04-07T00:46:21;49082.44;;;-149.77;48.94
60055;BME280;45930;53.514;55.904;2023-04-07T00:47:22;49096.31;;;-149.77;48.80
60055;BME280;45930;53.514;55.904;2023-04-07T00:48:23;49122.06;;;-149.77;49.06
60055;BME280;45930;53.514;55.904;2023-04-07T00:49:24;49104.25;;;-149.77;48.91
60055;BME280;45930;53.514;55.904;2023-04-07T00:50:27;49112.16;;;-149.77;48.90
60055;BME280;45930;53.514;55.904;2023-04-07T00:51:28;49096.31;;;-149.77;48.96
60055;BME280;45930;53.514;55.904;2023-04-07T00:52:30;49112.16;;;-149.77;48.75
60055;BME280;45930;53.514;55.904;2023-04-07T00:53:32;49102.25;;;-149.77;48.78
60055;BME280;45930;53.514;55.904;2023-04-07T00:54:32;49092.34;;;-149.77;48.95
60055;BME280;45930;53.514;55.904;2023-04-07T00:55:33;49088.41;;;-149.77;48.97
60055;BME280;45930;53.514;55.904;2023-04-07T00:56:34;49066.59;;;-149.77;48.94
60055;BME280;45930;53.514;55.904;2023-04-07T00:57:35;49098.28;;;-149.77;48.96
60055;BME280;45930;53.514;55.904;2023-04-07T00:58:36;49092.34;;;-149.77;48.81
60055;BME280;45930;53.514;55.904;2023-04-07T00:59:37;49112.16;;;-149.77;48.78
60055;BME280;45930;53.514;55.904;2023-04-07T01:02:13;49110.19;;;-149.77;48.80
60055;BME280;45930;53.514;55.904;2023-04-07T01:03:34;49088.41;;;-149.77;49.15
60055;BME280;45930;53.514;55.904;2023-04-07T01:04:57;49100.28;;;-149.77;48.98
60055;BME280;45930;53.514;55.904;2023-04-07T01:06:01;49092.34;;;-149.77;49.16
60055;BME280;45930;53.514;55.904;2023-04-07T01:07:10;49110.19;;;-149.77;48.99
60055;BME280;45930;53.514;55.904;2023-04-07T01:08:50;49084.44;;;-149.77;49.18
60055;BME280;45930;53.514;55.904;2023-04-07T01:10:02;49120.09;;;-149.77;49.25
60055;BME280;45930;53.514;55.904;2023-04-07T01:11:41;49100.28;;;-149.77;49.54
60055;BME280;45930;53.514;55.904;2023-04-07T01:12:48;49106.22;;;-149.77;49.77
60055;BME280;45930;53.514;55.904;2023-04-07T01:13:53;49084.44;;;-149.77;49.71
60055;BME280;45930;53.514;55.904;2023-04-07T01:14:57;49090.38;;;-149.77;49.76
60055;BME280;45930;53.514;55.904;2023-04-07T01:16:07;49100.28;;;-149.77;50.37
60055;BME280;45930;53.514;55.904;2023-04-07T01:17:09;49114.16;;;-149.77;51.06
60055;BME280;45930;53.514;55.904;2023-04-07T01:18:16;49114.16;;;-149.77;51.25
60055;BME280;45930;53.514;55.904;2023-04-07T01:19:36;49082.44;;;-149.77;51.21
60055;BME280;45930;53.514;55.904;2023-04-07T01:20:37;49078.50;;;-149.77;51.40
60055;BME280;45930;53.514;55.904;2023-04-07T01:21:42;49096.31;;;-149.77;51.35
60055;BME280;45930;53.514;55.904;2023-04-07T01:22:46;49090.38;;;-149.77;51.33
60055;BME280;45930;53.514;55.904;2023-04-07T01:24:19;49052.75;;;-149.77;51.89
60055;BME280;45930;53.514;55.904;2023-04-07T01:25:26;49080.47;;;-149.77;51.90
60055;BME280;45930;53.514;55.904;2023-04-07T01:26:34;49104.25;;;-149.77;52.35
60055;BME280;45930;53.514;55.904;2023-04-07T01:30:19;49080.47;;;-149.77;52.09
60055;BME280;45930;53.514;55.904;2023-04-07T01:31:24;49104.25;;;-149.77;52.28
60055;BME280;45930;53.514;55.904;2023-04-07T01:32:26;49096.31;;;-149.77;51.98
60055;BME280;45930;53.514;55.904;2023-04-07T01:33:30;49068.59;;;-149.77;52.60
60055;BME280;45930;53.514;55.904;2023-04-07T01:34:32;49076.50;;;-149.77;52.53
60055;BME280;45930;53.514;55.904;2023-04-07T01:35:36;49110.19;;;-149.77;52.74
60055;BME280;45930;53.514;55.904;2023-04-07T01:36:37;49068.59;;;-149.77;52.72
60055;BME280;45930;53.514;55.904;2023-04-07T01:37:39;49078.50;;;-149.77;52.93
60055;BME280;45930;53.514;55.904;2023-04-07T01:38:41;49090.38;;;-149.77;52.94
60055;BME280;45930;53.514;55.904;2023-04-07T01:39:43;49086.41;;;-149.77;52.96
60055;BME280;45930;53.514;55.904;2023-04-07T01:40:44;49070.56;;;-149.77;53.15
60055;BME280;45930;53.514;55.904;2023-04-07T01:41:48;49084.44;;;-149.77;53.27
60055;BME280;45930;53.514;55.904;2023-04-07T01:42:51;49076.50;;;-149.77;53.27
60055;BME280;45930;53.514;55.904;2023-04-07T01:43:53;49104.25;;;-149.77;53.25
60055;BME280;45930;53.514;55.904;2023-04-07T01:44:55;49068.59;;;-149.77;52.80
60055;BME280;45930;53.514;55.904;2023-04-07T01:45:58;49076.50;;;-149.77;52.58
60055;BME280;45930;53.514;55.904;2023-04-07T01:47:00;49086.41;;;-149.77;52.23
60055;BME280;45930;53.514;55.904;2023-04-07T01:48:04;49110.19;;;-149.77;51.94
60055;BME280;45930;53.514;55.904;2023-04-07T01:49:06;49078.50;;;-149.77;51.70
60055;BME280;45930;53.514;55.904;2023-04-07T01:50:10;49076.50;;;-149.77;51.43
60055;BME280;45930;53.514;55.904;2023-04-07T01:51:12;49076.50;;;-149.77;51.12
60055;BME280;45930;53.514;55.904;2023-04-07T01:52:18;49084.44;;;-149.77;51.06
60055;BME280;45930;53.514;55.904;2023-04-07T01:53:22;49086.41;;;-149.77;51.00
60055;BME280;45930;53.514;55.904;2023-04-07T01:54:23;49076.50;;;-149.77;50.86
60055;BME280;45930;53.514;55.904;2023-04-07T01:55:24;49096.31;;;-149.77;50.80
60055;BME280;45930;53.514;55.904;2023-04-07T01:56:25;49084.44;;;-149.77;50.73
60055;BME280;45930;53.514;55.904;2023-04-07T01:57:26;49090.38;;;-149.77;50.55
60055;BME280;45930;53.514;55.904;2023-04-07T01:58:27;49084.44;;;-149.77;50.46
60055;BME280;45930;53.514;55.904;2023-04-07T01:59:29;49076.50;;;-149.77;50.42
60055;BME280;45930;53.514;55.904;2023-04-07T02:00:30;49094.34;;;-149.77;50.43
60055;BME280;45930;53.514;55.904;2023-04-07T02:01:31;49086.41;;;-149.77;50.64
60055;BME280;45930;53.514;55.904;2023-04-07T02:02:40;49090.38;;;-149.77;50.51
60055;BME280;45930;53.514;55.904;2023-04-07T02:04:51;49070.56;;;-149.77;51.05
60055;BME280;45930;53.514;55.904;2023-04-07T02:05:56;49072.53;;;-149.77;51.40
60055;BME280;45930;53.514;55.904;2023-04-07T02:07:05;49102.25;;;-149.77;51.66
60055;BME280;45930;53.514;55.904;2023-04-07T02:08:09;49090.38;;;-149.77;52.23
60055;BME280;45930;53.514;55.904;2023-04-07T02:09:14;49104.25;;;-149.77;52.58
60055;BME280;45930;53.514;55.904;2023-04-07T02:10:20;49112.16;;;-149.77;52.50
60055;BME280;45930;53.514;55.904;2023-04-07T02:11:23;49066.59;;;-149.77;52.80
60055;BME280;45930;53.514;55.904;2023-04-07T02:12:26;49092.34;;;-149.77;53.35
60055;BME280;45930;53.514;55.904;2023-04-07T02:13:28;49064.63;;;-149.77;53.75
60055;BME280;45930;53.514;55.904;2023-04-07T02:14:31;49092.34;;;-149.77;53.97
60055;BME280;45930;53.514;55.904;2023-04-07T02:15:33;49092.34;;;-149.77;54.27
60055;BME280;45930;53.514;55.904;2023-04-07T02:16:36;49074.53;;;-149.77;54.70
60055;BME280;45930;53.514;55.904;2023-04-07T02:17:40;49064.63;;;-149.77;55.23
60055;BME280;45930;53.514;55.904;2023-04-07T02:18:42;49052.75;;;-149.77;55.23
60055;BME280;45930;53.514;55.904;2023-04-07T02:19:45;49076.50;;;-149.77;55.04
60055;BME280;45930;53.514;55.904;2023-04-07T02:20:47;49092.34;;;-149.77;55.10
60055;BME280;45930;53.514;55.904;2023-04-07T02:21:50;49064.63;;;-149.77;54.83
60055;BME280;45930;53.514;55.904;2023-04-07T02:22:51;49066.59;;;-149.77;54.82
60055;BME280;45930;53.514;55.904;2023-04-07T02:23:53;49060.66;;;-149.77;54.33
60055;BME280;45930;53.514;55.904;2023-04-07T02:24:53;49082.44;;;-149.77;54.31
60055;BME280;45930;53.514;55.904;2023-04-07T02:25:56;49100.28;;;-149.77;54.03
60055;BME280;45930;53.514;55.904;2023-04-07T02:26:57;49088.41;;;-149.77;53.83
60055;BME280;45930;53.514;55.904;2023-04-07T02:28:00;49084.44;;;-149.77;53.48
60055;BME280;45930;53.514;55.904;2023-04-07T02:29:02;49068.59;;;-149.77;53.32
60055;BME280;45930;53.514;55.904;2023-04-07T02:30:03;49092.34;;;-149.77;53.48
60055;BME280;45930;53.514;55.904;2023-04-07T02:31:05;49076.50;;;-149.77;53.54
60055;BME280;45930;53.514;55.904;2023-04-07T02:32:06;49078.50;;;-149.77;53.12
60055;BME280;45930;53.514;55.904;2023-04-07T02:33:06;49068.59;;;-149.77;52.77
60055;BME280;45930;53.514;55.904;2023-04-07T02:34:07;49084.44;;;-149.77;52.46
60055;BME280;45930;53.514;55.904;2023-04-07T02:35:08;49068.59;;;-149.77;52.08
60055;BME280;45930;53.514;55.904;2023-04-07T02:36:09;49092.34;;;-149.77;51.66
60055;BME280;45930;53.514;55.904;2023-04-07T02:37:10;49072.53;;;-149.77;51.37
60055;BME280;45930;53.514;55.904;2023-04-07T02:38:11;49042.84;;;-149.77;51.21
60055;BME280;45930;53.514;55.904;2023-04-07T02:39:11;49064.63;;;-149.77;51.21
60055;BME280;45930;53.514;55.904;2023-04-07T02:40:13;49034.91;;;-149.77;50.98
60055;BME280;45930;53.514;55.904;2023-04-07T02:41:13;49072.53;;;-149.77;50.59
60055;BME280;45930;53.514;55.904;2023-04-07T02:42:14;49082.44;;;-149.77;50.41
60055;BME280;45930;53.514;55.904;2023-04-07T02:43:15;49080.47;;;-149.77;49.65
60055;BME280;45930;53.514;55.904;2023-04-07T02:44:17;49072.53;;;-149.77;49.42
60055;BME280;45930;53.514;55.904;2023-04-07T02:45:17;49084.44;;;-149.77;49.41
60055;BME280;45930;53.514;55.904;2023-04-07T02:46:18;49092.34;;;-149.77;49.33
60055;BME280;45930;53.514;55.904;2023-04-07T02:47:19;49074.53;;;-149.77;49.15
60055;BME280;45930;53.514;55.904;2023-04-07T02:48:23;49064.63;;;-149.77;49.01
60055;BME280;45930;53.514;55.904;2023-04-07T02:49:23;49066.59;;;-149.77;48.78
60055;BME280;45930;53.514;55.904;2023-04-07T02:50:24;49084.44;;;-149.77;48.36
60055;BME280;45930;53.514;55.904;2023-04-07T02:51:25;49082.44;;;-149.77;47.97
60055;BME280;45930;53.514;55.904;2023-04-07T02:52:26;49078.50;;;-149.77;47.78
60055;BME280;45930;53.514;55.904;2023-04-07T02:53:27;49092.34;;;-149.77;47.68
60055;BME280;45930;53.514;55.904;2023-04-07T02:54:28;49094.34;;;-149.77;47.51
60055;BME280;45930;53.514;55.904;2023-04-07T02:55:29;49072.53;;;-149.77;47.38
60055;BME280;45930;53.514;55.904;2023-04-07T02:56:30;49092.34;;;-149.77;47.36
60055;BME280;45930;53.514;55.904;2023-04-07T02:57:30;49088.41;;;-149.77;47.36
60055;BME280;45930;53.514;55.904;2023-04-07T02:58:31;49086.41;;;-149.77;47.29
60055;BME280;45930;53.514;55.904;2023-04-07T02:59:32;49066.59;;;-149.77;47.07
60055;BME280;45930;53.514;55.904;2023-04-07T03:00:33;49074.53;;;-149.77;46.85
60055;BME280;45930;53.514;55.904;2023-04-07T03:01:34;49090.38;;;-149.77;46.88
60055;BME280;45930;53.514;55.904;2023-04-07T03:02:35;49068.59;;;-149.77;47.04
60055;BME280;45930;53.514;55.904;2023-04-07T03:03:36;49088.41;;;-149.77;47.24
60055;BME280;45930;53.514;55.904;2023-04-07T03:04:38;49094.34;;;-149.77;47.59
60055;BME280;45930;53.514;55.904;2023-04-07T03:05:39;49086.41;;;-149.77;47.52
60055;BME280;45930;53.514;55.904;2023-04-07T03:06:40;49072.53;;;-149.77;47.28
60055;BME280;45930;53.514;55.904;2023-04-07T03:07:40;49102.25;;;-149.77;47.41
60055;BME280;45930;53.514;55.904;2023-04-07T03:08:41;49064.63;;;-149.77;47.54
60055;BME280;45930;53.514;55.904;2023-04-07T03:09:42;49070.56;;;-149.77;47.34
60055;BME280;45930;53.514;55.904;2023-04-07T03:10:43;49080.47;;;-149.77;47.41
60055;BME280;45930;53.514;55.904;2023-04-07T03:11:43;49070.56;;;-149.77;47.26
60055;BME280;45930;53.514;55.904;2023-04-07T03:12:44;49100.28;;;-149.77;47.17
60055;BME280;45930;53.514;55.904;2023-04-07T03:13:45;49084.44;;;-149.77;47.42
60055;BME280;45930;53.514;55.904;2023-04-07T03:14:46;49082.44;;;-149.77;47.50
60055;BME280;45930;53.514;55.904;2023-04-07T03:15:46;49092.34;;;-149.77;47.53
60055;BME280;45930;53.514;55.904;2023-04-07T03:16:47;49088.41;;;-149.77;47.51
60055;BME280;45930;53.514;55.904;2023-04-07T03:17:48;49114.16;;;-149.77;47.41
60055;BME280;45930;53.514;55.904;2023-04-07T03:18:48;49088.41;;;-149.77;47.52
60055;BME280;45930;53.514;55.904;2023-04-07T03:19:49;49080.47;;;-149.77;47.51
60055;BME280;45930;53.514;55.904;2023-04-07T03:20:51;49106.22;;;-149.77;47.90
60055;BME280;45930;53.514;55.904;2023-04-07T03:21:52;49086.41;;;-149.77;47.81
60055;BME280;45930;53.514;55.904;2023-04-07T03:22:53;49086.41;;;-149.77;47.77
60055;BME280;45930;53.514;55.904;2023-04-07T03:23:54;49086.41;;;-149.77;47.64
60055;BME280;45930;53.514;55.904;2023-04-07T03:24:54;49074.53;;;-149.77;47.84
60055;BME280;45930;53.514;55.904;2023-04-07T03:25:56;49086.41;;;-149.77;47.98
60055;BME280;45930;53.514;55.904;2023-04-07T03:26:57;49104.25;;;-149.77;48.01
60055;BME280;45930;53.514;55.904;2023-04-07T03:27:58;49046.78;;;-149.77;48.07
60055;BME280;45930;53.514;55.904;2023-04-07T03:28:59;49078.50;;;-149.77;48.06
60055;BME280;45930;53.514;55.904;2023-04-07T03:29:59;49082.44;;;-149.77;48.12
60055;BME280;45930;53.514;55.904;2023-04-07T03:31:00;49092.34;;;-149.77;48.26
60055;BME280;45930;53.514;55.904;2023-04-07T03:32:01;49102.25;;;-149.77;48.38
60055;BME280;45930;53.514;55.904;2023-04-07T03:33:02;49076.50;;;-149.77;48.39
60055;BME280;45930;53.514;55.904;2023-04-07T03:34:03;49092.34;;;-149.77;48.34
60055;BME280;45930;53.514;55.904;2023-04-07T03:35:04;49102.25;;;-149.77;48.57
60055;BME280;45930;53.514;55.904;2023-04-07T03:36:05;49096.31;;;-149.77;48.38
60055;BME280;45930;53.514;55.904;2023-04-07T03:37:07;49080.47;;;-149.77;48.72
60055;BME280;45930;53.514;55.904;2023-04-07T03:38:07;49080.47;;;-149.77;49.34
60055;BME280;45930;53.514;55.904;2023-04-07T03:39:08;49092.34;;;-149.77;49.74
60055;BME280;45930;53.514;55.904;2023-04-07T03:40:09;49084.44;;;-149.77;50.43
60055;BME280;45930;53.514;55.904;2023-04-07T03:41:10;49088.41;;;-149.77;50.70
60055;BME280;45930;53.514;55.904;2023-04-07T03:42:11;49106.22;;;-149.77;51.37
60055;BME280;45930;53.514;55.904;2023-04-07T03:43:12;49100.28;;;-149.77;52.15
60055;BME280;45930;53.514;55.904;2023-04-07T03:44:15;49098.28;;;-149.77;52.60
60055;BME280;45930;53.514;55.904;2023-04-07T03:45:16;49076.50;;;-149.77;53.19
60055;BME280;45930;53.514;55.904;2023-04-07T03:46:18;49100.28;;;-149.77;54.29
60055;BME280;45930;53.514;55.904;2023-04-07T03:47:19;49102.25;;;-149.77;55.33
60055;BME280;45930;53.514;55.904;2023-04-07T03:48:21;49066.59;;;-149.77;55.70
60055;BME280;45930;53.514;55.904;2023-04-07T03:49:21;49088.41;;;-149.77;56.28
60055;BME280;45930;53.514;55.904;2023-04-07T03:50:22;49064.63;;;-149.77;57.66
60055;BME280;45930;53.514;55.904;2023-04-07T03:51:23;49082.44;;;-149.77;57.75
60055;BME280;45930;53.514;55.904;2023-04-07T03:52:23;49084.44;;;-149.77;59.13
60055;BME280;45930;53.514;55.904;2023-04-07T03:53:24;49084.44;;;-149.77;60.68
60055;BME280;45930;53.514;55.904;2023-04-07T03:54:25;49104.25;;;-149.77;61.88
60055;BME280;45930;53.514;55.904;2023-04-07T03:55:26;49052.75;;;-149.77;62.22
60055;BME280;45930;53.514;55.904;2023-04-07T03:56:27;49062.66;;;-149.77;63.19
60055;BME280;45930;53.514;55.904;2023-04-07T03:57:28;49060.66;;;-149.77;63.63
60055;BME280;45930;53.514;55.904;2023-04-07T03:58:28;49078.50;;;-149.77;64.25
60055;BME280;45930;53.514;55.904;2023-04-07T03:59:29;49060.66;;;-149.77;64.60
60055;BME280;45930;53.514;55.904;2023-04-07T04:00:30;49036.91;;;-149.77;65.25
60055;BME280;45930;53.514;55.904;2023-04-07T04:01:32;49042.84;;;-149.77;66.17
60055;BME280;45930;53.514;55.904;2023-04-07T04:02:33;49060.66;;;-149.77;67.10
60055;BME280;45930;53.514;55.904;2023-04-07T04:03:34;49052.75;;;-149.77;67.49
60055;BME280;45930;53.514;55.904;2023-04-07T04:04:35;49068.59;;;-149.77;68.44
60055;BME280;45930;53.514;55.904;2023-04-07T04:05:35;49052.75;;;-149.77;69.52
60055;BME280;45930;53.514;55.904;2023-04-07T04:06:36;49064.63;;;-149.77;70.17
60055;BME280;45930;53.514;55.904;2023-04-07T04:07:37;49042.84;;;-149.77;71.18
60055;BME280;45930;53.514;55.904;2023-04-07T04:08:38;49040.84;;;-149.77;71.96
60055;BME280;45930;53.514;55.904;2023-04-07T04:09:38;49036.91;;;-149.77;72.29
60055;BME280;45930;53.514;55.904;2023-04-07T04:10:39;49027.00;;;-149.77;72.38
60055;BME280;45930;53.514;55.904;2023-04-07T04:11:45;49032.94;;;-149.77;73.18
60055;BME280;45930;53.514;55.904;2023-04-07T04:12:47;49019.06;;;-149.77;73.23
60055;BME280;45930;53.514;55.904;2023-04-07T04:13:48;49017.09;;;-149.77;73.38
60055;BME280;45930;53.514;55.904;2023-04-07T04:14:49;49036.91;;;-149.77;73.27
60055;BME280;45930;53.514;55.904;2023-04-07T04:15:52;49017.09;;;-149.77;73.91
60055;BME280;45930;53.514;55.904;2023-04-07T04:16:54;49023.03;;;-149.77;74.38
60055;BME280;45930;53.514;55.904;2023-04-07T04:17:55;49015.09;;;-149.77;71.85
60055;BME280;45930;53.514;55.904;2023-04-07T04:18:55;49019.06;;;-149.77;72.16
60055;BME280;45930;53.514;55.904;2023-04-07T04:19:56;49032.94;;;-149.77;71.44
60055;BME280;45930;53.514;55.904;2023-04-07T04:20:57;49013.13;;;-149.77;71.69
60055;BME280;45930;53.514;55.904;2023-04-07T04:21:58;49009.16;;;-149.77;73.20
60055;BME280;45930;53.514;55.904;2023-04-07T04:22:58;49005.19;;;-149.77;73.93
60055;BME280;45930;53.514;55.904;2023-04-07T04:23:59;49032.94;;;-149.77;74.72
60055;BME280;45930;53.514;55.904;2023-04-07T04:25:00;49027.00;;;-149.77;74.65
60055;BME280;45930;53.514;55.904;2023-04-07T04:26:01;48995.31;;;-149.77;74.90
60055;BME280;45930;53.514;55.904;2023-04-07T04:27:03;49001.25;;;-149.77;74.42
60055;BME280;45930;53.514;55.904;2023-04-07T04:28:04;49009.16;;;-149.77;73.78
60055;BME280;45930;53.514;55.904;2023-04-07T04:29:05;49009.16;;;-149.77;74.37
60055;BME280;45930;53.514;55.904;2023-04-07T04:30:06;48995.31;;;-149.77;74.63
60055;BME280;45930;53.514;55.904;2023-04-07T04:31:07;48993.31;;;-149.77;75.06
60055;BME280;45930;53.514;55.904;2023-04-07T04:32:08;48979.47;;;-149.77;75.66
60055;BME280;45930;53.514;55.904;2023-04-07T04:33:09;49013.13;;;-149.77;76.02
60055;BME280;45930;53.514;55.904;2023-04-07T04:34:09;48989.34;;;-149.77;77.56
60055;BME280;45930;53.514;55.904;2023-04-07T04:35:10;48959.66;;;-149.77;78.42
60055;BME280;45930;53.514;55.904;2023-04-07T04:36:11;48993.31;;;-149.77;77.93
60055;BME280;45930;53.514;55.904;2023-04-07T04:37:12;48981.44;;;-149.77;78.06
60055;BME280;45930;53.514;55.904;2023-04-07T04:38:13;48989.34;;;-149.77;78.01
60055;BME280;45930;53.514;55.904;2023-04-07T04:39:14;48965.59;;;-149.77;78.10
60055;BME280;45930;53.514;55.904;2023-04-07T04:40:15;49011.16;;;-149.77;77.50
60055;BME280;45930;53.514;55.904;2023-04-07T04:41:16;48971.53;;;-149.77;76.88
60055;BME280;45930;53.514;55.904;2023-04-07T04:42:18;48973.50;;;-149.77;77.96
60055;BME280;45930;53.514;55.904;2023-04-07T04:43:19;48973.50;;;-149.77;79.07
60055;BME280;45930;53.514;55.904;2023-04-07T04:44:19;48959.66;;;-149.77;79.49
60055;BME280;45930;53.514;55.904;2023-04-07T04:45:20;48969.56;;;-149.77;78.80
60055;BME280;45930;53.514;55.904;2023-04-07T04:46:21;49007.19;;;-149.77;78.20
60055;BME280;45930;53.514;55.904;2023-04-07T04:47:22;48967.56;;;-149.77;79.84
60055;BME280;45930;53.514;55.904;2023-04-07T04:48:22;48965.59;;;-149.77;80.03
60055;BME280;45930;53.514;55.904;2023-04-07T04:49:23;48971.53;;;-149.77;79.78
60055;BME280;45930;53.514;55.904;2023-04-07T04:50:24;48941.81;;;-149.77;79.44
60055;BME280;45930;53.514;55.904;2023-04-07T04:51:25;48983.41;;;-149.77;79.21
60055;BME280;45930;53.514;55.904;2023-04-07T04:52:25;48997.28;;;-149.77;79.49
60055;BME280;45930;53.514;55.904;2023-04-07T04:53:26;48977.47;;;-149.77;79.39
60055;BME280;45930;53.514;55.904;2023-04-07T04:54:28;48985.41;;;-149.77;79.17
60055;BME280;45930;53.514;55.904;2023-04-07T04:55:29;48987.38;;;-149.77;78.75
60055;BME280;45930;53.514;55.904;2023-04-07T04:56:29;48973.50;;;-149.77;80.32
60055;BME280;45930;53.514;55.904;2023-04-07T04:57:30;48971.53;;;-149.77;81.37
60055;BME280;45930;53.514;55.904;2023-04-07T04:58:31;48922.03;;;-149.77;80.99
60055;BME280;45930;53.514;55.904;2023-04-07T04:59:32;48967.56;;;-149.77;81.51
60055;BME280;45930;53.514;55.904;2023-04-07T05:00:33;48945.78;;;-149.77;81.44
60055;BME280;45930;53.514;55.904;2023-04-07T05:01:34;48929.94;;;-149.77;81.56
60055;BME280;45930;53.514;55.904;2023-04-07T05:02:35;48955.69;;;-149.77;81.12
60055;BME280;45930;53.514;55.904;2023-04-07T05:03:36;48949.75;;;-149.77;81.35
60055;BME280;45930;53.514;55.904;2023-04-07T05:04:37;48937.88;;;-149.77;81.65
60055;BME280;45930;53.514;55.904;2023-04-07T05:05:38;48949.75;;;-149.77;80.64
60055;BME280;45930;53.514;55.904;2023-04-07T05:06:39;48979.47;;;-149.77;81.65
60055;BME280;45930;53.514;55.904;2023-04-07T05:07:39;48949.75;;;-149.77;82.56
60055;BME280;45930;53.514;55.904;2023-04-07T05:08:41;48918.06;;;-149.77;82.31
60055;BME280;45930;53.514;55.904;2023-04-07T05:09:42;48918.06;;;-149.77;82.77
60055;BME280;45930;53.514;55.904;2023-04-07T05:10:42;48900.22;;;-149.77;81.33
60055;BME280;45930;53.514;55.904;2023-04-07T05:11:43;48945.78;;;-149.77;80.80
60055;BME280;45930;53.514;55.904;2023-04-07T05:12:44;48969.56;;;-149.77;80.26
60055;BME280;45930;53.514;55.904;2023-04-07T05:13:45;48957.66;;;-149.77;80.69
60055;BME280;45930;53.514;55.904;2023-04-07T05:14:46;48943.81;;;-149.77;80.45
60055;BME280;45930;53.514;55.904;2023-04-07T05:15:46;48961.63;;;-149.77;79.53
60055;BME280;45930;53.514;55.904;2023-04-07T05:16:47;48943.81;;;-149.77;79.69
60055;BME280;45930;53.514;55.904;2023-04-07T05:17:48;48933.91;;;-149.77;80.79
60055;BME280;45930;53.514;55.904;2023-04-07T05:18:49;48951.72;;;-149.77;80.04
60055;BME280;45930;53.514;55.904;2023-04-07T05:19:50;48937.88;;;-149.77;79.66
60055;BME280;45930;53.514;55.904;2023-04-07T05:20:51;48967.56;;;-149.77;78.82
60055;BME280;45930;53.514;55.904;2023-04-07T05:21:52;48961.63;;;-149.77;78.15